Time;durP1;ratioP1;P1;durP2;ratioP2;P2;SDS_P1;SDS_P2;PMS_P1;PMS_P2;Temp;Humidity;BMP_temperature;BMP_pressure;BME280_temperature;BME280_humidity;BME280_pressure;Samples;Min_cycle;Max_cycle;Signal;HPM_P1;HPM_P2
2021/05/03 00:00:52;;;;;;;1.73;0.80;;;24.30;99.90;;;;;;5056060;28;20383;-37
2021/05/03 00:03:18;;;;;;;1.00;0.55;;;24.30;99.90;;;;;;5004420;28;20041;-37
2021/05/03 00:05:55;;;;;;;1.77;1.02;;;24.30;99.90;;;;;;5055982;28;20027;-38
2021/05/03 00:08:21;;;;;;;1.50;1.02;;;24.30;99.90;;;;;;5054303;28;20052;-37
2021/05/03 00:10:47;;;;;;;1.20;0.65;;;24.30;99.90;;;;;;5056101;28;20025;-37
2021/05/03 00:13:12;;;;;;;1.30;0.80;;;24.30;99.90;;;;;;5055871;28;20047;-37
2021/05/03 00:15:38;;;;;;;1.55;0.80;;;24.30;99.90;;;;;;5055907;28;20459;-38
2021/05/03 00:18:04;;;;;;;1.75;0.82;;;24.30;99.90;;;;;;5055865;28;20078;-37
2021/05/03 00:20:30;;;;;;;0.80;0.70;;;24.30;99.90;;;;;;5054089;28;20041;-37
2021/05/03 00:22:55;;;;;;;0.52;0.50;;;24.30;99.90;;;;;;5070482;28;20090;-37
2021/05/03 00:25:21;;;;;;;0.82;0.70;;;24.30;99.90;;;;;;5055665;28;20435;-37
2021/05/03 00:27:47;;;;;;;1.05;0.70;;;24.30;99.90;;;;;;5055774;28;20028;-37
2021/05/03 00:30:13;;;;;;;1.38;0.63;;;24.30;99.90;;;;;;5055838;28;20036;-37
2021/05/03 00:32:39;;;;;;;1.23;0.80;;;24.30;99.90;;;;;;5020393;28;20427;-37
2021/05/03 00:35:05;;;;;;;1.38;0.70;;;24.20;99.90;;;;;;5053721;28;20051;-37
2021/05/03 00:37:31;;;;;;;1.48;0.90;;;24.30;99.90;;;;;;5053601;28;20437;-40
2021/05/03 00:39:56;;;;;;;0.95;0.73;;;24.20;99.90;;;;;;5055386;28;20110;-37
2021/05/03 00:42:22;;;;;;;0.90;0.60;;;24.20;99.90;;;;;;5055435;28;20075;-37
2021/05/03 00:44:50;;;;;;;1.45;0.90;;;24.20;99.90;;;;;;5055243;28;20471;-37
2021/05/03 00:47:16;;;;;;;1.02;0.63;;;24.20;99.90;;;;;;5055239;28;20064;-37
2021/05/03 00:49:42;;;;;;;1.00;0.90;;;24.20;99.90;;;;;;5055450;28;20020;-38
2021/05/03 00:52:08;;;;;;;1.55;0.88;;;24.20;99.90;;;;;;5070360;28;20455;-37
2021/05/03 00:54:34;;;;;;;0.82;0.65;;;24.20;99.90;;;;;;5070005;28;20032;-38
2021/05/03 00:57:00;;;;;;;3.10;0.90;;;24.20;99.90;;;;;;5053309;28;20044;-37
2021/05/03 00:59:26;;;;;;;1.25;0.60;;;24.20;99.90;;;;;;5055499;28;20455;-37
2021/05/03 01:01:51;;;;;;;0.90;0.73;;;24.10;99.90;;;;;;5054720;28;20399;-37
2021/05/03 01:04:17;;;;;;;1.08;0.85;;;24.20;99.90;;;;;;5054908;28;20032;-37
2021/05/03 01:06:43;;;;;;;1.10;0.90;;;24.20;99.90;;;;;;5055142;28;20085;-38
2021/05/03 01:09:09;;;;;;;1.67;0.85;;;24.20;99.90;;;;;;5054971;28;20498;-37
2021/05/03 01:11:36;;;;;;;0.98;0.70;;;24.20;99.90;;;;;;5055001;28;20132;-37
2021/05/03 01:14:02;;;;;;;0.80;0.73;;;24.10;99.90;;;;;;5054597;28;20049;-37
2021/05/03 01:16:28;;;;;;;0.77;0.60;;;24.20;99.90;;;;;;5036049;28;20090;-37
2021/05/03 01:18:53;;;;;;;1.25;0.60;;;24.10;99.90;;;;;;5054858;28;20482;-37
2021/05/03 01:21:37;;;;;;;0.73;0.60;;;24.10;99.90;;;;;;5054794;28;20028;-37
2021/05/03 01:24:03;;;;;;;2.25;0.98;;;24.10;99.90;;;;;;5052801;28;20503;-37
2021/05/03 01:26:29;;;;;;;0.90;0.73;;;24.10;99.90;;;;;;5035065;28;20033;-37
2021/05/03 01:28:55;;;;;;;1.20;0.80;;;24.10;99.90;;;;;;5054815;28;20466;-37
2021/05/03 01:31:21;;;;;;;1.40;0.65;;;24.10;99.90;;;;;;5054884;28;20036;-37
2021/05/03 01:33:46;;;;;;;1.30;0.82;;;24.10;99.90;;;;;;5052587;28;20033;-37
2021/05/03 01:36:12;;;;;;;1.25;0.70;;;24.10;99.90;;;;;;5069460;28;20078;-37
2021/05/03 01:38:38;;;;;;;0.75;0.65;;;24.10;99.90;;;;;;5035632;28;20073;-38
2021/05/03 01:41:04;;;;;;;1.25;0.70;;;24.10;99.90;;;;;;5054011;28;20384;-37
2021/05/03 01:43:30;;;;;;;1.60;0.70;;;24.00;99.90;;;;;;5052521;28;20044;-37
2021/05/03 01:45:58;;;;;;;1.05;0.75;;;24.10;99.90;;;;;;5054013;28;20104;-37
2021/05/03 01:48:30;;;;;;;1.08;0.80;;;24.10;99.90;;;;;;5054155;28;20383;-37
2021/05/03 01:50:57;;;;;;;0.90;0.60;;;24.10;99.90;;;;;;5054216;28;20374;-37
2021/05/03 01:53:24;;;;;;;0.52;0.52;;;24.00;99.90;;;;;;5068888;28;20492;-37
2021/05/03 01:55:57;;;;;;;0.82;0.77;;;24.00;99.90;;;;;;5054797;28;20363;-38
2021/05/03 01:58:24;;;;;;;1.20;0.80;;;24.00;99.90;;;;;;5053970;28;20029;-37
2021/05/03 02:00:51;;;;;;;0.98;0.60;;;24.00;99.90;;;;;;5053431;28;20075;-37
2021/05/03 02:03:28;;;;;;;0.70;0.60;;;24.00;99.90;;;;;;5053818;28;20544;-37
2021/05/03 02:05:55;;;;;;;0.95;0.80;;;24.00;99.90;;;;;;5054031;28;20097;-37
2021/05/03 02:08:21;;;;;;;0.95;0.70;;;24.00;99.90;;;;;;5068557;28;20511;-37
2021/05/03 02:10:50;;;;;;;1.60;0.73;;;24.00;99.90;;;;;;5053644;28;20415;-38
2021/05/03 02:13:16;;;;;;;1.77;0.75;;;24.00;99.90;;;;;;5053699;28;20052;-37
2021/05/03 02:15:42;;;;;;;0.70;0.70;;;24.00;99.90;;;;;;5053812;28;20074;-37
2021/05/03 02:18:08;;;;;;;1.20;0.60;;;24.00;99.90;;;;;;5051897;28;20493;-37
2021/05/03 02:20:34;;;;;;;0.70;0.60;;;24.00;99.90;;;;;;5018753;28;20163;-37
2021/05/03 02:23:01;;;;;;;0.70;0.60;;;24.00;99.90;;;;;;5053443;28;20033;-37
2021/05/03 02:25:27;;;;;;;0.60;0.57;;;23.90;99.90;;;;;;5053789;28;20053;-37
2021/05/03 02:27:53;;;;;;;0.70;0.70;;;23.90;99.90;;;;;;5053409;28;20546;-37
2021/05/03 02:30:19;;;;;;;1.05;0.80;;;23.90;99.90;;;;;;5053512;28;20057;-37
2021/05/03 02:32:46;;;;;;;1.02;0.65;;;23.90;99.90;;;;;;5068178;28;20035;-38
2021/05/03 02:35:16;;;;;;;0.82;0.60;;;23.90;99.90;;;;;;5053862;28;20520;-37
2021/05/03 02:37:45;;;;;;;0.80;0.80;;;23.90;99.90;;;;;;5053351;28;20087;-38
2021/05/03 02:40:11;;;;;;;1.15;0.70;;;23.90;99.90;;;;;;5053427;28;20430;-37
2021/05/03 02:42:36;;;;;;;1.08;0.80;;;23.90;99.90;;;;;;5053145;28;20037;-37
2021/05/03 02:45:03;;;;;;;0.77;0.65;;;23.90;99.90;;;;;;5053813;28;20187;-37
2021/05/03 02:47:29;;;;;;;1.08;0.85;;;23.90;99.90;;;;;;5053375;28;20021;-37
2021/05/03 02:49:55;;;;;;;0.80;0.60;;;23.90;99.90;;;;;;5051564;28;20039;-37
2021/05/03 02:52:20;;;;;;;0.85;0.68;;;23.90;99.90;;;;;;5018262;28;20065;-37
2021/05/03 02:54:46;;;;;;;1.08;0.90;;;23.80;99.90;;;;;;5053488;28;20021;-38
2021/05/03 02:57:12;;;;;;;1.13;0.70;;;23.80;99.90;;;;;;5051347;28;20514;-37
2021/05/03 02:59:38;;;;;;;1.58;0.60;;;23.80;99.90;;;;;;5053442;28;20021;-37
2021/05/03 03:02:03;;;;;;;0.95;0.80;;;23.80;99.90;;;;;;5051278;28;20395;-37
2021/05/03 03:04:29;;;;;;;0.70;0.70;;;23.80;99.90;;;;;;5051324;28;20045;-37
2021/05/03 03:06:55;;;;;;;1.13;0.77;;;23.70;99.90;;;;;;5053007;28;20094;-38
2021/05/03 03:09:20;;;;;;;0.85;0.60;;;23.70;99.90;;;;;;5053318;28;20044;-37
2021/05/03 03:11:47;;;;;;;0.80;0.60;;;23.80;99.90;;;;;;5052809;28;20036;-38
2021/05/03 03:14:15;;;;;;;1.63;0.90;;;23.80;99.90;;;;;;5052786;28;20179;-37
2021/05/03 03:16:41;;;;;;;1.17;0.65;;;23.80;99.90;;;;;;5052979;28;20029;-37
2021/05/03 03:19:07;;;;;;;0.80;0.65;;;23.80;99.90;;;;;;5067963;28;20033;-37
2021/05/03 03:21:34;;;;;;;1.00;0.70;;;23.70;99.90;;;;;;5050920;28;20048;-37
2021/05/03 03:24:00;;;;;;;0.88;0.70;;;23.70;99.90;;;;;;5050685;28;20079;-37
2021/05/03 03:26:25;;;;;;;1.65;0.65;;;23.70;99.90;;;;;;5051080;28;20049;-37
2021/05/03 03:28:51;;;;;;;1.10;0.70;;;23.70;99.90;;;;;;5050861;28;20509;-37
2021/05/03 03:31:17;;;;;;;0.60;0.60;;;23.70;99.90;;;;;;5050093;28;20051;-37
2021/05/03 03:33:43;;;;;;;0.75;0.70;;;23.70;99.90;;;;;;5017497;28;20040;-37
2021/05/03 03:36:09;;;;;;;0.73;0.55;;;23.60;99.90;;;;;;5050665;28;20392;-38
2021/05/03 03:38:36;;;;;;;1.08;0.73;;;23.60;99.90;;;;;;5050662;28;20103;-37
2021/05/03 03:41:02;;;;;;;0.60;0.57;;;23.70;99.90;;;;;;5033570;28;20453;-37
2021/05/03 03:43:28;;;;;;;0.77;0.77;;;23.60;99.90;;;;;;5050483;28;20055;-37
2021/05/03 03:45:54;;;;;;;0.75;0.70;;;23.60;99.90;;;;;;5050502;28;20029;-37
2021/05/03 03:48:20;;;;;;;1.13;0.73;;;23.60;99.90;;;;;;5050538;28;20033;-37
2021/05/03 03:50:47;;;;;;;0.95;0.57;;;23.60;99.90;;;;;;5019925;28;20091;-37
2021/05/03 03:53:13;;;;;;;0.90;0.68;;;23.60;99.90;;;;;;5056156;28;20033;-37
2021/05/03 03:55:39;;;;;;;0.50;0.50;;;23.60;99.90;;;;;;5056431;28;20550;-37
2021/05/03 03:58:04;;;;;;;0.80;0.65;;;23.60;99.90;;;;;;5056368;28;20029;-37
2021/05/03 04:00:30;;;;;;;0.85;0.50;;;23.60;99.90;;;;;;5056603;28;20035;-37
2021/05/03 04:02:57;;;;;;;0.68;0.68;;;23.60;99.90;;;;;;5070900;28;20453;-37
2021/05/03 04:08:20;;;;;;;1.05;0.82;;;23.60;99.90;;;;;;5055929;28;20031;-37
2021/05/03 04:21:25;;;;;;;1.98;0.88;;;23.50;99.90;;;;;;5056579;28;20044;-37
2021/05/03 04:26:26;;;;;;;0.68;0.60;;;23.50;99.90;;;;;;5055681;28;20060;-37
2021/05/03 04:28:53;;;;;;;0.73;0.60;;;23.50;99.90;;;;;;5070564;28;20035;-37
2021/05/03 04:31:20;;;;;;;0.68;0.60;;;23.00;99.90;;;;;;5055187;28;20021;-38
2021/05/03 04:33:47;;;;;;;1.00;0.80;;;23.50;99.90;;;;;;5055998;28;20048;-37
2021/05/03 04:36:13;;;;;;;0.55;0.52;;;23.50;99.90;;;;;;5070535;28;20039;-37
2021/05/03 04:38:39;;;;;;;0.80;0.60;;;23.50;99.90;;;;;;5055412;28;20442;-37
2021/05/03 04:41:06;;;;;;;0.57;0.50;;;23.50;99.90;;;;;;5055514;28;20037;-38
2021/05/03 04:43:32;;;;;;;1.23;0.70;;;23.50;99.90;;;;;;5070373;28;20045;-37
2021/05/03 04:45:58;;;;;;;0.75;0.70;;;23.50;99.90;;;;;;4987364;28;20033;-38
2021/05/03 04:48:25;;;;;;;0.90;0.82;;;23.50;99.90;;;;;;5055517;28;20388;-37
2021/05/03 04:50:51;;;;;;;0.85;0.70;;;23.50;99.90;;;;;;5055468;28;20036;-37
2021/05/03 04:53:17;;;;;;;1.55;0.70;;;23.50;99.90;;;;;;5055303;28;20420;-37
2021/05/03 04:55:43;;;;;;;0.77;0.60;;;23.50;99.90;;;;;;5055185;28;20079;-37
2021/05/03 04:58:08;;;;;;;0.88;0.60;;;23.50;99.90;;;;;;5055484;28;20052;-37
2021/05/03 05:00:34;;;;;;;0.77;0.50;;;23.50;99.90;;;;;;5053232;28;20044;-37
2021/05/03 05:03:00;;;;;;;1.35;0.90;;;23.50;99.90;;;;;;5055477;28;20033;-37
2021/05/03 05:05:27;;;;;;;0.60;0.60;;;23.50;99.90;;;;;;5069982;28;20077;-37
2021/05/03 05:07:54;;;;;;;0.80;0.57;;;23.50;99.90;;;;;;5053043;28;20586;-37
2021/05/03 05:10:20;;;;;;;0.75;0.60;;;23.50;99.90;;;;;;5054877;28;20029;-37
2021/05/03 05:12:45;;;;;;;1.38;0.68;;;23.50;99.90;;;;;;5052927;28;20079;-37
2021/05/03 05:15:12;;;;;;;1.75;0.70;;;23.40;99.90;;;;;;5053001;28;20116;-37
2021/05/03 05:17:37;;;;;;;0.82;0.60;;;23.50;99.90;;;;;;5054784;28;20353;-37
2021/05/03 05:20:05;;;;;;;0.70;0.60;;;;;;;;;;5054854;28;20029;-38
2021/05/03 05:22:31;;;;;;;0.75;0.55;;;23.50;99.90;;;;;;5052599;28;20553;-37
2021/05/03 05:24:58;;;;;;;0.93;0.50;;;23.50;99.90;;;;;;5054919;28;20029;-37
2021/05/03 05:27:24;;;;;;;0.95;0.70;;;23.50;99.90;;;;;;5054475;28;20032;-37
2021/05/03 05:29:50;;;;;;;0.60;0.60;;;23.50;99.90;;;;;;5054460;28;20357;-37
2021/05/03 05:32:15;;;;;;;0.60;0.52;;;23.50;99.90;;;;;;5052337;28;20083;-37
2021/05/03 05:34:41;;;;;;;0.85;0.60;;;23.50;99.90;;;;;;5052550;28;20060;-37
2021/05/03 05:37:08;;;;;;;0.95;0.70;;;23.50;99.90;;;;;;5069168;28;20052;-37
2021/05/03 05:39:34;;;;;;;0.63;0.63;;;23.50;99.90;;;;;;5054224;28;20426;-37
2021/05/03 05:41:59;;;;;;;1.08;0.77;;;23.50;99.90;;;;;;5068921;28;20040;-37
2021/05/03 05:44:25;;;;;;;0.55;0.45;;;23.50;99.90;;;;;;5054159;28;20032;-37
2021/05/03 05:46:51;;;;;;;0.93;0.70;;;23.50;99.90;;;;;;5054297;28;20571;-37
2021/05/03 05:49:17;;;;;;;0.77;0.57;;;23.50;99.90;;;;;;5054266;28;20029;-37
2021/05/03 05:51:42;;;;;;;0.70;0.60;;;23.50;99.90;;;;;;5054817;28;20090;-37
2021/05/03 05:54:08;;;;;;;1.05;0.70;;;23.50;99.90;;;;;;5068826;28;20040;-37
2021/05/03 05:56:34;;;;;;;0.60;0.60;;;23.50;99.90;;;;;;5054151;28;20035;-37
2021/05/03 05:59:00;;;;;;;0.88;0.60;;;23.50;99.90;;;;;;5053856;28;20033;-37
2021/05/03 06:01:27;;;;;;;0.90;0.70;;;23.50;99.90;;;;;;5051515;28;20041;-37
2021/05/03 06:03:54;;;;;;;0.93;0.60;;;23.40;99.90;;;;;;5018699;28;20096;-37
2021/05/03 06:06:20;;;;;;;1.13;0.80;;;23.50;99.90;;;;;;5051435;28;20060;-37
2021/05/03 06:08:45;;;;;;;1.17;0.70;;;23.50;99.90;;;;;;5051657;28;20066;-37
2021/05/03 06:11:11;;;;;;;0.68;0.60;;;23.50;99.90;;;;;;5051623;28;20037;-37
2021/05/03 06:13:37;;;;;;;0.73;0.70;;;23.50;99.90;;;;;;5051143;28;20132;-37
2021/05/03 06:16:03;;;;;;;0.70;0.70;;;23.50;99.90;;;;;;5051660;28;20068;-37
2021/05/03 06:18:28;;;;;;;0.80;0.55;;;23.50;99.90;;;;;;5051522;28;20041;-37
2021/05/03 06:20:54;;;;;;;0.55;0.47;;;23.50;99.90;;;;;;5051463;28;20075;-37
2021/05/03 06:23:20;;;;;;;0.90;0.70;;;23.50;99.90;;;;;;5051137;28;20033;-37
2021/05/03 06:25:45;;;;;;;1.23;0.75;;;23.50;99.90;;;;;;5034878;28;20041;-37
2021/05/03 06:28:12;;;;;;;0.40;0.40;;;23.50;99.90;;;;;;5051223;28;20124;-37
2021/05/03 06:30:38;;;;;;;1.83;0.65;;;23.50;99.90;;;;;;5051634;28;20063;-37
2021/05/03 06:46:03;;;;;;;0.98;0.70;;;23.50;99.90;;;;;;5124956;27;880390;-37
2021/05/03 06:48:29;;;;;;;0.70;0.70;;;23.90;99.90;;;;;;5130002;28;20071;-37
2021/05/03 06:50:55;;;;;;;0.73;0.50;;;23.80;99.90;;;;;;5131828;27;20023;-37
2021/05/03 06:53:21;;;;;;;0.77;0.70;;;23.80;99.90;;;;;;5112375;28;20381;-37
2021/05/03 06:55:47;;;;;;;1.00;0.65;;;23.70;99.90;;;;;;5131942;27;20031;-37
2021/05/03 06:58:13;;;;;;;0.60;0.60;;;23.80;99.90;;;;;;5131770;28;20038;-37
2021/05/03 07:00:40;;;;;;;0.70;0.70;;;23.70;99.90;;;;;;5131375;27;20485;-37
2021/05/03 07:03:07;;;;;;;1.00;0.75;;;23.60;99.90;;;;;;5131801;27;20042;-38
2021/05/03 07:05:33;;;;;;;0.88;0.60;;;23.70;99.90;;;;;;5112375;28;20027;-37
2021/05/03 07:07:59;;;;;;;0.70;0.70;;;23.60;99.90;;;;;;5078357;28;20377;-37
2021/05/03 07:10:25;;;;;;;0.60;0.50;;;23.60;99.90;;;;;;5112203;28;20035;-37
2021/05/03 07:12:51;;;;;;;0.63;0.60;;;23.60;99.90;;;;;;5112554;28;20042;-37
2021/05/03 07:15:17;;;;;;;0.52;0.52;;;23.60;99.90;;;;;;5130873;27;20485;-37
2021/05/03 07:17:43;;;;;;;0.60;0.60;;;23.60;99.90;;;;;;5131155;27;20084;-37
2021/05/03 07:20:10;;;;;;;0.70;0.70;;;23.60;99.90;;;;;;5112062;28;20036;-39
2021/05/03 07:22:36;;;;;;;0.68;0.68;;;23.60;99.90;;;;;;5061907;28;20043;-37
2021/05/03 07:25:07;;;;;;;0.60;0.57;;;23.60;99.90;;;;;;5130867;28;20019;-37
2021/05/03 07:27:35;;;;;;;0.53;0.50;;;23.60;99.90;;;;;;5131323;27;20118;-37
2021/05/03 07:30:01;;;;;;;0.65;0.57;;;23.60;99.90;;;;;;5148644;27;20254;-37
2021/05/03 07:32:27;;;;;;;0.50;0.50;;;23.60;99.90;;;;;;5148136;27;20126;-38
2021/05/03 07:34:52;;;;;;;0.75;0.65;;;23.60;99.90;;;;;;5151312;27;20173;-37
2021/05/03 07:37:18;;;;;;;0.60;0.60;;;23.60;99.90;;;;;;5151393;27;20102;-37
2021/05/03 07:39:44;;;;;;;0.73;0.65;;;23.60;99.90;;;;;;5151395;27;20083;-38
2021/05/03 07:42:10;;;;;;;0.70;0.70;;;23.60;99.90;;;;;;5151242;27;20380;-37
2021/05/03 07:44:37;;;;;;;0.75;0.60;;;23.60;99.90;;;;;;5150996;27;20038;-37
2021/05/03 07:47:02;;;;;;;0.70;0.70;;;23.60;99.90;;;;;;5137775;27;20106;-37
2021/05/03 08:00:52;;;;;;;0.93;0.73;;;23.60;99.90;;;;;;5090908;27;20393;-37
2021/05/03 08:03:20;;;;;;;0.55;0.55;;;;;;;;;;5091132;28;20040;-36
2021/05/03 08:05:45;;;;;;;0.90;0.60;;;23.90;99.90;;;;;;5088978;28;20127;-37
2021/05/03 08:08:11;;;;;;;0.80;0.80;;;23.90;99.90;;;;;;5105878;28;20123;-37
2021/05/03 08:10:37;;;;;;;0.60;0.55;;;23.80;99.90;;;;;;5090466;28;20142;-37
2021/05/03 08:13:03;;;;;;;0.77;0.75;;;23.80;99.90;;;;;;5090566;28;20077;-37
2021/05/03 08:15:28;;;;;;;0.90;0.70;;;23.80;99.90;;;;;;5106023;28;20090;-37
2021/05/03 08:17:54;;;;;;;1.08;0.95;;;23.70;99.90;;;;;;5090561;28;20124;-37
2021/05/03 08:20:20;;;;;;;0.90;0.70;;;23.80;99.90;;;;;;5090368;28;20031;-37
2021/05/03 08:22:47;;;;;;;0.85;0.70;;;23.70;99.90;;;;;;5090428;28;20493;-37
2021/05/03 08:25:14;;;;;;;0.57;0.57;;;23.70;99.90;;;;;;5090003;28;20089;-37
2021/05/03 08:27:40;;;;;;;0.80;0.80;;;23.70;99.90;;;;;;5090384;28;20036;-37
2021/05/03 08:30:08;;;;;;;1.00;0.80;;;23.70;99.90;;;;;;5090201;28;20082;-37
2021/05/03 08:32:33;;;;;;;0.60;0.60;;;23.70;99.90;;;;;;5071222;28;20359;-36
2021/05/03 08:34:59;;;;;;;0.80;0.80;;;23.60;99.90;;;;;;5088285;28;20066;-37
2021/05/03 08:37:25;;;;;;;0.50;0.50;;;23.60;99.90;;;;;;5054771;28;20036;-37
2021/05/03 08:39:51;;;;;;;0.93;0.80;;;23.60;99.90;;;;;;5105277;28;20391;-37
2021/05/03 08:42:17;;;;;;;4.22;0.90;;;23.60;99.90;;;;;;5054704;28;20047;-37
2021/05/03 08:44:46;;;;;;;0.60;0.60;;;23.50;99.90;;;;;;5090114;28;20494;-36
2021/05/03 08:47:12;;;;;;;0.77;0.77;;;23.50;99.90;;;;;;5088163;28;20442;-37
2021/05/03 08:52:16;;;;;;;0.70;0.55;;;23.50;99.90;;;;;;5090036;28;20070;-37
2021/05/03 08:54:44;;;;;;;0.90;0.80;;;23.50;99.90;;;;;;5089771;28;20032;-37
2021/05/03 08:57:12;;;;;;;0.82;0.82;;;23.50;99.90;;;;;;5089588;28;20475;-37
2021/05/03 08:59:39;;;;;;;1.02;0.70;;;23.50;99.90;;;;;;5088871;28;20036;-37
2021/05/03 09:02:07;;;;;;;0.60;0.60;;;23.50;99.90;;;;;;5075889;28;20372;-37
2021/05/03 09:04:33;;;;;;;0.80;0.70;;;23.50;99.90;;;;;;5091332;28;20056;-36
2021/05/03 09:07:05;;;;;;;0.98;0.80;;;23.60;99.90;;;;;;5076031;28;20024;-37
2021/05/03 09:09:36;;;;;;;0.98;0.73;;;23.60;99.90;;;;;;5076222;28;20094;-37
2021/05/03 09:12:11;;;;;;;0.80;0.75;;;23.60;99.90;;;;;;5076419;28;20056;-37
2021/05/03 09:14:50;;;;;;;0.95;0.70;;;23.60;99.90;;;;;;5076186;28;20025;-37
2021/05/03 09:17:22;;;;;;;0.82;0.82;;;23.70;99.90;;;;;;5090957;28;20032;-37
2021/05/03 09:19:48;;;;;;;1.10;0.90;;;23.70;99.90;;;;;;5090912;28;20059;-37
2021/05/03 09:22:33;;;;;;;0.93;0.68;;;23.70;99.90;;;;;;5075984;28;20032;-37
2021/05/03 09:25:20;;;;;;;0.73;0.73;;;23.70;99.90;;;;;;5076336;28;20040;-37
2021/05/03 09:27:47;;;;;;;1.00;0.85;;;23.70;99.90;;;;;;5073963;28;20033;-37
2021/05/03 09:30:30;;;;;;;0.65;0.63;;;23.70;99.90;;;;;;5075626;28;20037;-37
2021/05/03 09:33:14;;;;;;;1.17;0.80;;;23.70;99.90;;;;;;5074045;28;20079;-37
2021/05/03 09:35:46;;;;;;;0.75;0.73;;;23.70;99.90;;;;;;5075835;28;20028;-37
2021/05/03 09:38:39;;;;;;;1.00;0.90;;;23.70;99.90;;;;;;5090449;28;20044;-36
2021/05/03 09:41:11;;;;;;;0.80;0.75;;;23.70;99.90;;;;;;5075337;28;20028;-37
2021/05/03 09:43:39;;;;;;;0.70;0.70;;;23.60;99.90;;;;;;5075629;28;20463;-36
2021/05/03 09:46:23;;;;;;;2.03;0.90;;;23.60;99.90;;;;;;5074444;28;20033;-37
2021/05/03 09:48:49;;;;;;;0.70;0.70;;;23.60;99.90;;;;;;5074194;28;20159;-37
2021/05/03 09:51:51;;;;;;;1.00;0.90;;;23.50;99.90;;;;;;5074381;28;20123;-37
2021/05/03 09:54:22;;;;;;;1.17;0.82;;;23.50;99.90;;;;;;5051686;28;20058;-37
2021/05/03 09:56:55;;;;;;;0.93;0.90;;;23.50;99.90;;;;;;5051738;28;20033;-37
2021/05/03 09:59:52;;;;;;;0.98;0.85;;;23.50;99.90;;;;;;5051108;28;20076;-36
2021/05/03 10:02:30;;;;;;;1.20;0.95;;;23.50;99.90;;;;;;5051556;28;20127;-37
2021/05/03 10:07:39;;;;;;;0.57;0.57;;;23.50;99.90;;;;;;5051704;28;20457;-37
2021/05/03 10:10:11;;;;;;;0.93;0.90;;;23.50;99.90;;;;;;5051318;28;20084;-37
2021/05/03 10:12:38;;;;;;;1.05;0.95;;;23.50;99.90;;;;;;5011094;28;20046;-36
2021/05/03 10:15:09;;;;;;;0.88;0.88;;;23.50;99.90;;;;;;4980373;28;20087;-37
2021/05/03 10:17:39;;;;;;;0.85;0.77;;;23.50;99.90;;;;;;4997072;28;20060;-37
2021/05/03 10:20:07;;;;;;;1.13;0.93;;;23.50;99.90;;;;;;5012674;28;20400;-37
2021/05/03 10:22:33;;;;;;;0.90;0.80;;;23.50;99.90;;;;;;4947961;28;20121;-36
2021/05/03 10:25:03;;;;;;;0.80;0.77;;;23.50;99.90;;;;;;4979680;28;20559;-36
2021/05/03 10:27:33;;;;;;;0.77;0.77;;;23.50;99.90;;;;;;5012751;28;20030;-36
2021/05/03 10:30:18;;;;;;;0.80;0.80;;;23.50;99.90;;;;;;5022836;28;20049;-36
2021/05/03 10:33:01;;;;;;;1.00;0.90;;;23.50;99.90;;;;;;5052357;28;20208;-36
2021/05/03 10:35:38;;;;;;;0.80;0.80;;;23.50;99.90;;;;;;5052104;28;20476;-36
2021/05/03 10:38:05;;;;;;;1.52;1.23;;;23.70;99.90;;;;;;5052233;28;20029;-36
2021/05/03 10:40:33;;;;;;;0.82;0.80;;;24.00;99.90;;;;;;5052300;28;20472;-36
2021/05/03 10:43:02;;;;;;;1.00;0.90;;;24.20;99.90;;;;;;5052143;28;20041;-36
2021/05/03 10:45:42;;;;;;;1.02;0.90;;;24.40;99.90;;;;;;5051901;28;20043;-36
2021/05/03 10:56:49;;;;;;;1.10;1.00;;;25.00;99.90;;;;;;5051933;28;20040;-36
2021/05/03 10:59:16;;;;;;;0.98;0.88;;;25.20;99.90;;;;;;5051608;28;20060;-36
2021/05/03 11:02:08;;;;;;;0.88;0.85;;;25.40;99.90;;;;;;5051893;28;20045;-36
2021/05/03 11:04:36;;;;;;;1.08;0.98;;;25.20;99.90;;;;;;5049028;28;20052;-36
2021/05/03 11:07:06;;;;;;;1.20;1.10;;;25.00;99.90;;;;;;5051785;28;20045;-36
2021/05/03 11:09:34;;;;;;;0.80;0.80;;;24.80;99.90;;;;;;5051468;28;20055;-36
2021/05/03 11:12:06;;;;;;;0.82;0.82;;;24.80;99.90;;;;;;5051674;28;20464;-36
2021/05/03 11:14:34;;;;;;;1.00;0.90;;;24.70;99.90;;;;;;5051574;28;20623;-36
2021/05/03 11:17:06;;;;;;;1.00;0.90;;;24.70;99.90;;;;;;5051740;28;20071;-36
2021/05/03 11:20:10;;;;;;;0.80;0.80;;;24.60;99.90;;;;;;5051218;28;20503;-37
2021/05/03 11:22:39;;;;;;;1.45;0.93;;;24.40;99.90;;;;;;5047758;28;20128;-36
2021/05/03 11:25:12;;;;;;;2.85;0.80;;;24.40;99.90;;;;;;5051218;28;20064;-36
2021/05/03 11:27:44;;;;;;;1.10;1.00;;;24.40;99.90;;;;;;5071457;28;20039;-36
2021/05/03 11:30:17;;;;;;;1.08;0.80;;;24.30;99.90;;;;;;5073300;28;20045;-36
2021/05/03 11:32:43;;;;;;;1.75;1.10;;;24.30;99.90;;;;;;5071991;28;20052;-36
2021/05/03 11:45:30;;;;;;;1.02;0.80;;;24.20;99.90;;;;;;5071727;28;20430;-36
2021/05/03 11:47:59;;;;;;;0.77;0.77;;;24.20;99.90;;;;;;5071630;28;20033;-36
2021/05/03 11:50:27;;;;;;;0.90;0.85;;;24.10;99.90;;;;;;5072870;28;20386;-36
2021/05/03 11:52:53;;;;;;;0.80;0.80;;;24.10;99.90;;;;;;5088529;28;20399;-36
2021/05/03 11:55:25;;;;;;;0.82;0.80;;;24.10;99.90;;;;;;5073316;28;20028;-36
2021/05/03 11:57:52;;;;;;;1.00;0.80;;;24.00;99.90;;;;;;5073533;28;20029;-36
2021/05/03 12:00:27;;;;;;;1.08;0.98;;;24.00;99.90;;;;;;5072892;28;20044;-36
2021/05/03 12:03:02;;;;;;;1.13;1.00;;;23.90;99.90;;;;;;5073185;28;20028;-36
2021/05/03 12:05:31;;;;;;;1.23;0.98;;;23.90;99.90;;;;;;5072993;28;20052;-36
2021/05/03 12:07:57;;;;;;;0.90;0.90;;;23.90;99.90;;;;;;5088401;28;20044;-36
2021/05/03 12:10:22;;;;;;;1.02;0.88;;;23.90;99.90;;;;;;5088058;28;20487;-36
2021/05/03 12:12:54;;;;;;;0.80;0.80;;;23.90;99.90;;;;;;5071723;28;20031;-36
2021/05/03 12:15:27;;;;;;;;;;;23.90;99.90;;;;;;5073639;28;20410;-36
2021/05/03 12:18:01;;;;;;;;;;;23.90;99.90;;;;;;5073544;28;19904;-36
2021/05/03 12:20:27;;;;;;;;;;;23.90;99.90;;;;;;5073249;28;19905;-36
2021/05/03 12:22:53;;;;;;;;;;;23.90;99.90;;;;;;5073722;28;19940;-36
2021/05/03 12:25:19;;;;;;;;;;;23.90;99.90;;;;;;5073703;28;19911;-36
2021/05/03 12:27:44;;;;;;;;;;;23.90;99.90;;;;;;5073691;28;20323;-36
2021/05/03 12:30:10;;;;;;;;;;;24.00;99.90;;;;;;5073517;28;19919;-36
2021/05/03 12:32:37;;;;;;;;;;;24.00;99.90;;;;;;5071527;28;19947;-36
2021/05/03 12:35:07;;;;;;;;;;;24.10;99.90;;;;;;5072842;28;19908;-38
2021/05/03 12:37:32;;;;;;;;;;;24.20;99.90;;;;;;5076489;28;19904;-36
2021/05/03 12:40:10;;;;;;;;;;;24.30;99.90;;;;;;5076758;28;20268;-36
2021/05/03 12:42:38;;;;;;;;;;;24.30;99.90;;;;;;5093732;28;19930;-36
2021/05/03 12:46:18;;;;;;;;;;;24.50;99.90;;;;;;5093779;28;19915;-36
2021/05/03 12:56:35;;;;;;;;;;;24.70;99.90;;;;;;5033462;28;20323;-36
2021/05/03 12:58:52;;;;;;;;;;;24.70;99.90;;;;;;5029279;28;19905;-36
2021/05/03 13:28:58;;;;;;;;;;;25.10;99.90;;;;;;5012772;28;19920;-36
2021/05/03 13:31:24;;;;;;;;;;;25.10;99.90;;;;;;5012867;28;19905;-36
2021/05/03 13:33:49;;;;;;;;;;;25.10;99.90;;;;;;5012904;28;19912;-36
2021/05/03 13:36:15;;;;;;;;;;;25.20;99.90;;;;;;5012814;28;19905;-36
2021/05/03 13:38:40;;;;;;;;;;;25.10;99.90;;;;;;5012839;28;19905;-36
2021/05/03 13:41:06;;;;;;;;;;;25.20;99.90;;;;;;5012347;28;19906;-36
2021/05/03 13:43:31;;;;;;;;;;;25.20;99.90;;;;;;5012700;28;19905;-36
2021/05/03 13:45:57;;;;;;;;;;;25.20;99.90;;;;;;5012671;28;19905;-36
2021/05/03 13:48:22;;;;;;;;;;;25.20;99.90;;;;;;5019925;28;20284;-36
2021/05/03 13:50:48;;;;;;;;;;;25.20;99.90;;;;;;5032393;28;19909;-36
2021/05/03 13:53:14;;;;;;;;;;;25.20;99.90;;;;;;5032386;28;19905;-36
2021/05/03 13:55:42;;;;;;;;;;;25.30;99.90;;;;;;4998750;28;20360;-36
2021/05/03 13:58:07;;;;;;;;;;;25.30;99.90;;;;;;5032309;28;19908;-36
2021/05/03 14:00:33;;;;;;;;;;;25.30;99.90;;;;;;5032053;28;20004;-36
2021/05/03 14:02:59;;;;;;;;;;;25.30;99.90;;;;;;5050994;28;19905;-36
2021/05/03 14:05:24;;;;;;;;;;;25.10;99.90;;;;;;5074582;28;19936;-36
2021/05/03 14:07:51;;;;;;;;;;;25.00;99.90;;;;;;5073789;28;19912;-36
2021/05/03 14:10:16;;;;;;;;;;;24.80;99.90;;;;;;5074228;28;19942;-36
2021/05/03 14:12:42;;;;;;;;;;;24.70;99.90;;;;;;5074162;28;19970;-36
2021/05/03 14:15:08;;;;;;;;;;;24.60;99.90;;;;;;5071645;28;20244;-36
2021/05/03 14:17:34;;;;;;;;;;;24.50;99.90;;;;;;5071975;28;19911;-36
2021/05/03 14:19:59;;;;;;;;;;;24.50;99.90;;;;;;5073736;28;19905;-36
2021/05/03 14:22:25;;;;;;;;;;;24.50;99.90;;;;;;5074243;28;19992;-36
2021/05/03 14:24:50;;;;;;;;;;;24.40;99.90;;;;;;5074220;28;19908;-36
2021/05/03 14:27:16;;;;;;;;;;;24.40;99.90;;;;;;5074102;28;19911;-36
2021/05/03 14:29:46;;;;;;;;;;;24.30;99.90;;;;;;5073740;28;20358;-36
2021/05/03 14:35:09;;;;;;;;;;;24.30;99.90;;;;;;5073577;28;19957;-36
2021/05/03 14:37:34;;;;;;;;;;;24.30;99.90;;;;;;5073862;28;19908;-36
2021/05/03 14:40:00;;;;;;;;;;;24.20;99.90;;;;;;5071635;28;20374;-36
2021/05/03 14:42:26;;;;;;;;;;;24.20;99.90;;;;;;5071530;28;20003;-36
2021/05/03 14:44:51;;;;;;;;;;;24.20;99.90;;;;;;5071503;28;19904;-36
2021/05/03 14:47:21;;;;;;;;;;;24.20;99.90;;;;;;5073225;28;20143;-36